createdAt,value
2023-05-02T00:02:03.337Z,3.97
2023-05-02T00:04:30.991Z,4.20
2023-05-02T00:06:58.377Z,3.60
2023-05-02T00:09:26.037Z,4.03
2023-05-02T00:11:53.274Z,4.13
2023-05-02T00:14:20.463Z,4.30
2023-05-02T00:16:47.774Z,3.83
2023-05-02T00:19:14.994Z,3.93
2023-05-02T00:21:42.182Z,3.70
2023-05-02T00:24:09.368Z,3.80
2023-05-02T00:26:36.640Z,3.80
2023-05-02T00:29:03.880Z,3.93
2023-05-02T00:31:31.150Z,4.07
2023-05-02T00:33:58.596Z,4.60
2023-05-02T00:36:27.350Z,3.90
2023-05-02T00:38:54.527Z,4.27
2023-05-02T00:41:21.931Z,4.53
2023-05-02T00:43:49.117Z,4.40
2023-05-02T00:46:16.349Z,4.00
2023-05-02T00:48:45.354Z,4.03
2023-05-02T00:51:13.575Z,3.87
2023-05-02T00:53:41.964Z,4.40
2023-05-02T00:56:10.043Z,4.20
2023-05-02T00:58:39.718Z,3.97
2023-05-02T01:01:16.603Z,4.03
2023-05-02T01:04:04.728Z,4.37
2023-05-02T01:06:43.182Z,4.63
2023-05-02T01:09:13.687Z,3.80
2023-05-02T01:11:59.493Z,4.20
2023-05-02T01:14:31.073Z,4.13
2023-05-02T01:17:04.145Z,4.23
2023-05-02T01:19:38.327Z,3.87
2023-05-02T01:22:09.481Z,3.73
2023-05-02T01:24:59.478Z,4.20
2023-05-02T01:27:55.881Z,3.87
2023-05-02T01:30:25.014Z,4.03
2023-05-02T01:32:54.076Z,4.00
2023-05-02T01:35:23.258Z,4.17
2023-05-02T01:37:53.516Z,3.90
2023-05-02T01:40:22.845Z,3.97
2023-05-02T01:42:51.788Z,4.20
2023-05-02T01:45:20.974Z,3.80
2023-05-02T01:47:49.799Z,4.40
2023-05-02T01:50:21.044Z,4.20
2023-05-02T01:52:49.819Z,4.30
2023-05-02T01:55:18.177Z,4.17
2023-05-02T01:57:47.600Z,4.23
2023-05-02T02:00:18.494Z,4.43
2023-05-02T02:02:48.350Z,4.63
2023-05-02T02:05:17.175Z,4.33
2023-05-02T02:07:44.663Z,4.57
2023-05-02T02:10:12.855Z,4.23
2023-05-02T02:12:59.054Z,4.07
2023-05-02T02:15:28.944Z,4.00
2023-05-02T02:18:02.116Z,4.60
2023-05-02T02:20:30.219Z,3.73
2023-05-02T02:23:00.570Z,3.90
2023-05-02T02:25:27.821Z,4.10
2023-05-02T02:27:55.140Z,4.10
2023-05-02T02:30:22.336Z,4.30
2023-05-02T02:32:49.551Z,4.07
2023-05-02T02:35:17.239Z,4.30
2023-05-02T02:37:47.478Z,3.67
2023-05-02T02:40:38.009Z,3.70
2023-05-02T02:43:40.344Z,4.17
2023-05-02T02:46:28.969Z,4.00
2023-05-02T02:48:59.655Z,4.00
2023-05-02T02:51:50.322Z,4.20
2023-05-02T02:54:27.140Z,3.80
2023-05-02T02:57:04.474Z,4.33
2023-05-02T02:59:38.654Z,4.00
2023-05-02T03:02:12.372Z,4.30
2023-05-02T03:04:44.273Z,4.67
2023-05-02T03:07:11.704Z,4.20
2023-05-02T03:09:46.675Z,4.57
2023-05-02T03:12:19.863Z,4.57
2023-05-02T03:14:48.841Z,4.50
2023-05-02T03:17:16.156Z,4.20
2023-05-02T03:19:43.451Z,4.03
2023-05-02T03:22:11.320Z,3.63
2023-05-02T03:24:38.504Z,4.17
2023-05-02T03:27:06.405Z,3.87
2023-05-02T03:29:39.683Z,4.00
2023-05-02T03:32:07.232Z,4.40
2023-05-02T03:34:36.778Z,3.70
2023-05-02T03:37:04.220Z,4.00
2023-05-02T03:39:32.960Z,3.57
2023-05-02T03:42:01.450Z,4.00
2023-05-02T03:44:28.948Z,3.90
2023-05-02T03:46:56.262Z,3.70
2023-05-02T03:49:24.051Z,4.03
2023-05-02T03:51:53.758Z,3.50
2023-05-02T03:54:26.029Z,4.03
2023-05-02T03:56:54.757Z,4.20
2023-05-02T03:59:28.136Z,4.10
2023-05-02T04:01:56.477Z,3.90
2023-05-02T04:04:32.839Z,4.30
2023-05-02T04:07:00.530Z,3.93
2023-05-02T04:09:28.501Z,3.93
2023-05-02T04:12:05.446Z,3.77
2023-05-02T04:14:34.606Z,3.77
2023-05-02T04:17:04.374Z,4.10
2023-05-02T04:19:39.708Z,4.10
2023-05-02T04:22:07.211Z,3.80
2023-05-02T04:24:38.639Z,3.90
2023-05-02T04:27:05.856Z,4.03
2023-05-02T04:29:33.460Z,4.03
2023-05-02T04:32:01.632Z,3.73
2023-05-02T04:34:31.379Z,4.10
2023-05-02T04:36:58.844Z,4.17
2023-05-02T04:39:26.726Z,3.93
2023-05-02T04:42:07.342Z,3.70
2023-05-02T04:44:41.633Z,3.80
2023-05-02T04:47:09.241Z,3.83
2023-05-02T04:49:36.514Z,3.90
2023-05-02T04:52:03.909Z,4.07
2023-05-02T04:54:34.029Z,3.80
2023-05-02T04:57:03.472Z,3.60
2023-05-02T04:59:33.162Z,4.40
2023-05-02T05:02:02.981Z,4.00
2023-05-02T05:04:30.558Z,4.20
2023-05-02T05:06:58.502Z,4.23
2023-05-02T05:09:28.564Z,3.90
2023-05-02T05:11:55.724Z,3.30
2023-05-02T05:14:24.313Z,4.00
2023-05-02T05:16:54.615Z,3.60
2023-05-02T05:19:22.864Z,4.20
2023-05-02T05:21:50.337Z,4.10
2023-05-02T05:24:19.595Z,3.90
2023-05-02T05:26:47.643Z,3.80
2023-05-02T05:29:15.524Z,4.30
2023-05-02T05:31:44.549Z,5.40
2023-05-02T05:34:15.028Z,3.97
2023-05-02T05:36:43.395Z,4.27
2023-05-02T05:39:10.820Z,4.43
2023-05-02T05:41:41.458Z,4.10
2023-05-02T05:44:10.997Z,4.23
2023-05-02T05:46:38.884Z,3.90
2023-05-02T05:49:07.870Z,4.37
2023-05-02T05:51:37.473Z,4.30
2023-05-02T05:54:04.704Z,4.40
2023-05-02T05:56:32.209Z,4.50
2023-05-02T05:59:07.384Z,4.20
2023-05-02T06:01:35.739Z,4.47
2023-05-02T06:04:05.105Z,4.30
2023-05-02T06:06:34.626Z,3.90
2023-05-02T06:09:04.229Z,4.20
2023-05-02T06:11:33.009Z,4.80
2023-05-02T06:14:00.562Z,4.20
2023-05-02T06:16:27.904Z,4.40
2023-05-02T06:18:55.090Z,4.70
2023-05-02T06:21:22.235Z,4.70
2023-05-02T06:23:49.456Z,4.20
2023-05-02T06:26:16.684Z,4.70
2023-05-02T06:28:44.528Z,4.40
2023-05-02T06:31:11.719Z,4.00
2023-05-02T06:33:39.247Z,4.30
2023-05-02T06:36:06.581Z,4.53
2023-05-02T06:38:33.768Z,4.30
2023-05-02T06:41:01.233Z,4.10
2023-05-02T06:43:28.376Z,4.10
2023-05-02T06:45:56.471Z,4.93
2023-05-02T06:48:23.691Z,4.73
2023-05-02T06:50:56.418Z,5.10
2023-05-02T06:53:23.548Z,4.90
2023-05-02T06:55:50.894Z,5.30
2023-05-02T06:58:18.121Z,4.77
2023-05-02T07:00:45.566Z,5.70
2023-05-02T07:03:12.840Z,5.10
2023-05-02T07:05:40.251Z,5.13
2023-05-02T07:08:07.661Z,4.97
2023-05-02T07:10:34.935Z,5.00
2023-05-02T07:13:02.087Z,5.50
2023-05-02T07:15:29.272Z,5.57
2023-05-02T07:17:56.476Z,5.97
2023-05-02T07:20:23.674Z,5.57
2023-05-02T07:22:51.067Z,5.80
2023-05-02T07:25:18.384Z,4.80
2023-05-02T07:27:45.528Z,6.20
2023-05-02T07:30:13.290Z,6.60
2023-05-02T07:32:40.898Z,6.73
2023-05-02T07:35:08.813Z,6.63
2023-05-02T07:37:36.829Z,5.83
2023-05-02T07:40:04.927Z,6.30
2023-05-02T07:42:32.896Z,6.37
2023-05-02T07:45:00.481Z,6.30
2023-05-02T07:47:28.235Z,7.10
2023-05-02T07:49:56.343Z,6.37
2023-05-02T07:52:23.678Z,6.53
2023-05-02T07:54:51.465Z,6.57
2023-05-02T07:57:19.118Z,7.40
2023-05-02T07:59:46.331Z,6.40
2023-05-02T08:02:14.052Z,7.37
2023-05-02T08:04:41.487Z,6.87
2023-05-02T08:07:08.791Z,7.00
2023-05-02T08:09:35.937Z,6.80
2023-05-02T08:12:03.257Z,7.33
2023-05-02T08:14:31.748Z,6.60
2023-05-02T08:16:59.459Z,8.00
2023-05-02T08:19:27.073Z,7.40
2023-05-02T08:21:55.216Z,7.37
2023-05-02T08:24:22.620Z,6.93
2023-05-02T08:26:50.057Z,6.90
2023-05-02T08:29:17.503Z,7.40
2023-05-02T08:31:44.831Z,7.17
2023-05-02T08:34:12.056Z,7.43
2023-05-02T08:36:39.299Z,7.23
2023-05-02T08:39:08.197Z,7.07
2023-05-02T08:41:35.916Z,7.13
2023-05-02T08:44:04.132Z,7.43
2023-05-02T08:46:35.016Z,7.67
2023-05-02T08:49:03.414Z,7.07
2023-05-02T08:51:32.670Z,6.80
2023-05-02T08:54:01.966Z,7.43
2023-05-02T08:56:29.215Z,7.10
2023-05-02T08:58:56.504Z,7.47
2023-05-02T09:01:24.419Z,7.53
2023-05-02T09:03:52.328Z,7.23
2023-05-02T09:06:21.829Z,7.90
2023-05-02T09:08:52.299Z,7.10
2023-05-02T09:11:19.967Z,6.97
2023-05-02T09:13:47.799Z,7.40
2023-05-02T09:16:26.802Z,7.00
2023-05-02T09:18:58.335Z,7.10
2023-05-02T09:21:41.561Z,7.03
2023-05-02T09:24:22.609Z,6.50
2023-05-02T09:27:03.757Z,7.10
2023-05-02T09:29:36.184Z,6.50
2023-05-02T09:32:05.032Z,6.97
2023-05-02T09:34:32.548Z,7.47
2023-05-02T09:36:59.746Z,7.83
2023-05-02T09:39:31.400Z,7.13
2023-05-02T09:41:59.316Z,7.83
2023-05-02T09:44:36.051Z,7.40
2023-05-02T09:47:03.738Z,7.83
2023-05-02T09:49:45.456Z,7.87
2023-05-02T09:52:18.168Z,8.00
2023-05-02T09:54:52.142Z,7.60
2023-05-02T09:57:19.851Z,8.00
2023-05-02T09:59:55.584Z,7.90
2023-05-02T10:02:24.251Z,7.60
2023-05-02T10:04:55.056Z,7.60
2023-05-02T10:07:22.525Z,7.13
2023-05-02T10:09:53.123Z,6.73
2023-05-02T10:12:24.648Z,7.10
2023-05-02T10:14:58.679Z,6.73
2023-05-02T10:17:33.548Z,7.03
2023-05-02T10:20:16.281Z,6.50
2023-05-02T10:22:45.997Z,6.83
2023-05-02T10:25:13.754Z,7.20
2023-05-02T10:27:41.391Z,7.10
2023-05-02T10:30:10.449Z,7.70
2023-05-02T10:32:38.446Z,7.60
2023-05-02T10:35:07.810Z,7.03
2023-05-02T10:37:38.534Z,7.20
2023-05-02T10:40:09.793Z,7.00
2023-05-02T10:42:46.114Z,7.97
2023-05-02T10:45:30.265Z,7.93
2023-05-02T10:48:17.148Z,7.47
2023-05-02T10:50:48.429Z,6.97
2023-05-02T10:53:31.895Z,8.27
2023-05-02T10:56:13.173Z,7.97
2023-05-02T10:58:41.989Z,8.13
2023-05-02T11:01:28.135Z,7.33
2023-05-02T11:03:58.628Z,7.73
2023-05-02T11:06:31.002Z,7.20
2023-05-02T11:09:24.508Z,7.80
2023-05-02T11:11:54.854Z,7.93
2023-05-02T11:14:30.909Z,7.03
2023-05-02T11:16:58.707Z,5.60
2023-05-02T11:19:29.110Z,6.40
2023-05-02T11:22:27.002Z,6.23
2023-05-02T11:24:54.568Z,7.60
2023-05-02T11:27:31.160Z,8.77
2023-05-02T11:30:00.208Z,9.53
2023-05-02T11:32:49.322Z,9.20
2023-05-02T11:35:20.159Z,9.13
2023-05-02T11:38:03.124Z,8.23
2023-05-02T11:40:31.618Z,9.00
2023-05-02T11:43:00.469Z,8.90
2023-05-02T11:45:37.777Z,9.43
2023-05-02T11:48:09.587Z,10.70
2023-05-02T11:50:51.419Z,10.40
2023-05-02T11:53:25.070Z,11.57
2023-05-02T11:56:12.550Z,10.40
2023-05-02T11:58:40.716Z,9.00
2023-05-02T12:01:13.482Z,10.67
2023-05-02T12:03:41.226Z,12.20
2023-05-02T12:06:14.119Z,11.43
2023-05-02T12:08:43.814Z,10.77
2023-05-02T12:11:15.291Z,10.97
2023-05-02T12:13:50.317Z,12.90
2023-05-02T12:16:19.171Z,13.10
2023-05-02T12:18:47.830Z,10.83
2023-05-02T12:21:15.596Z,11.43
2023-05-02T12:23:43.012Z,11.50
2023-05-02T12:26:36.742Z,10.40
2023-05-02T12:29:07.361Z,8.67
2023-05-02T12:31:34.749Z,8.37
2023-05-02T12:34:02.016Z,7.37
2023-05-02T12:36:29.364Z,8.70
2023-05-02T12:38:59.497Z,7.90
2023-05-02T12:41:37.964Z,9.73
2023-05-02T12:44:08.343Z,8.37
2023-05-02T12:46:36.403Z,7.13
2023-05-02T12:49:05.757Z,6.93
2023-05-02T12:51:34.280Z,7.87
2023-05-02T12:54:01.685Z,8.70
2023-05-02T12:56:32.225Z,8.20
2023-05-02T12:59:01.315Z,8.10
2023-05-02T13:01:29.033Z,8.63
2023-05-02T13:03:56.318Z,8.67
2023-05-02T13:06:23.597Z,8.60
2023-05-02T13:08:50.948Z,8.60
2023-05-02T13:11:18.270Z,7.73
2023-05-02T13:13:45.610Z,6.37
2023-05-02T13:16:12.840Z,5.97
2023-05-02T13:18:40.361Z,6.13
2023-05-02T13:21:07.630Z,5.87
2023-05-02T13:23:34.910Z,5.60
2023-05-02T13:26:02.057Z,5.13
2023-05-02T13:28:33.105Z,6.10
2023-05-02T13:31:00.770Z,5.73
2023-05-02T13:33:27.947Z,5.27
2023-05-02T13:35:55.077Z,6.70
2023-05-02T13:38:22.324Z,6.37
2023-05-02T13:40:49.991Z,5.13
2023-05-02T13:43:17.276Z,5.60
2023-05-02T13:45:44.930Z,5.10
2023-05-02T13:48:12.262Z,4.70
2023-05-02T13:50:39.498Z,4.73
2023-05-02T13:53:06.713Z,5.00
2023-05-02T13:55:33.937Z,5.40
2023-05-02T13:58:01.541Z,5.40
2023-05-02T14:00:29.212Z,4.73
2023-05-02T14:02:56.530Z,4.77
2023-05-02T14:05:23.775Z,5.40
2023-05-02T14:07:50.924Z,4.90
2023-05-02T14:10:18.063Z,5.07
2023-05-02T14:12:45.378Z,4.53
2023-05-02T14:15:12.610Z,4.57
2023-05-02T14:17:39.878Z,5.20
2023-05-02T14:20:08.017Z,5.07
2023-05-02T14:22:35.189Z,4.67
2023-05-02T14:25:02.320Z,5.60
2023-05-02T14:27:29.680Z,4.93
2023-05-02T14:29:56.845Z,4.20
2023-05-02T14:32:23.997Z,4.00
2023-05-02T14:34:51.252Z,4.40
2023-05-02T14:37:18.416Z,5.10
2023-05-02T14:39:46.636Z,5.63
2023-05-02T14:42:15.136Z,5.47
2023-05-02T14:44:42.392Z,5.73
2023-05-02T14:47:09.886Z,5.80
2023-05-02T14:49:37.248Z,7.63
2023-05-02T14:52:04.601Z,7.47
2023-05-02T14:54:31.842Z,7.03
2023-05-02T14:56:59.746Z,5.90
2023-05-02T14:59:30.931Z,7.90
2023-05-02T15:01:58.433Z,6.07
2023-05-02T15:04:27.469Z,4.90
2023-05-02T15:06:56.011Z,5.20
2023-05-02T15:09:26.334Z,5.13
2023-05-02T15:11:54.051Z,5.00
2023-05-02T15:14:21.530Z,4.80
2023-05-02T15:16:48.846Z,4.70
2023-05-02T15:19:16.334Z,5.17
2023-05-02T15:21:43.466Z,4.50
2023-05-02T15:24:11.361Z,4.70
2023-05-02T15:26:40.384Z,4.53
2023-05-02T15:29:07.761Z,5.17
2023-05-02T15:31:35.087Z,4.77
2023-05-02T15:34:02.525Z,5.10
2023-05-02T15:36:30.392Z,4.97
2023-05-02T15:38:57.603Z,4.47
2023-05-02T15:41:28.383Z,6.77
2023-05-02T15:43:56.603Z,6.40
2023-05-02T15:46:24.148Z,5.07
2023-05-02T15:48:51.960Z,6.00
2023-05-02T15:51:19.350Z,6.00
2023-05-02T15:53:49.831Z,5.43
2023-05-02T15:56:17.047Z,5.37
2023-05-02T15:58:44.183Z,6.27
2023-05-02T16:01:11.385Z,6.23
2023-05-02T16:03:38.844Z,7.27
2023-05-02T16:06:07.581Z,5.03
2023-05-02T16:08:34.884Z,5.60
2023-05-02T16:11:02.098Z,5.97
2023-05-02T16:13:29.269Z,6.00
2023-05-02T16:15:56.592Z,6.77
2023-05-02T16:18:28.054Z,6.00
2023-05-02T16:20:58.517Z,6.87
2023-05-02T16:23:26.265Z,5.20
2023-05-02T16:26:00.691Z,5.43
2023-05-02T16:28:28.210Z,5.07
2023-05-02T16:30:55.759Z,5.27
2023-05-02T16:33:23.071Z,5.77
2023-05-02T16:36:01.758Z,4.37
2023-05-02T16:38:28.967Z,4.80
2023-05-02T16:40:56.160Z,4.47
2023-05-02T16:43:23.722Z,8.27
2023-05-02T16:46:05.160Z,5.87
2023-05-02T16:48:33.365Z,5.60
2023-05-02T16:51:03.320Z,6.00
2023-05-02T16:53:31.554Z,5.90
2023-05-02T16:55:59.553Z,5.40
2023-05-02T16:58:29.725Z,5.83
2023-05-02T17:01:00.374Z,6.10
2023-05-02T17:03:28.876Z,6.00
2023-05-02T17:06:00.316Z,7.07
2023-05-02T17:08:28.011Z,6.80
2023-05-02T17:10:56.129Z,7.00
2023-05-02T17:13:23.845Z,7.70
2023-05-02T17:15:52.659Z,7.90
2023-05-02T17:18:19.969Z,6.00
2023-05-02T17:20:47.293Z,6.23
2023-05-02T17:23:14.642Z,6.73
2023-05-02T17:25:43.519Z,7.00
2023-05-02T17:28:10.741Z,6.80
2023-05-02T17:30:38.409Z,6.30
2023-05-02T17:33:05.818Z,5.67
2023-05-02T17:35:33.034Z,6.27
2023-05-02T17:38:00.296Z,6.30
2023-05-02T17:40:27.570Z,7.10
2023-05-02T17:42:55.362Z,6.87
2023-05-02T17:45:23.050Z,7.37
2023-05-02T17:47:50.334Z,7.73
2023-05-02T17:50:17.551Z,7.50
2023-05-02T17:52:44.704Z,6.47
2023-05-02T17:55:12.080Z,6.13
2023-05-02T17:57:39.261Z,5.73
2023-05-02T18:00:08.048Z,6.00
2023-05-02T18:02:37.560Z,5.80
2023-05-02T18:05:06.741Z,6.87
2023-05-02T18:07:33.945Z,5.90
2023-05-02T18:10:02.153Z,6.70
2023-05-02T18:12:29.681Z,6.23
2023-05-02T18:14:56.962Z,6.73
2023-05-02T18:17:24.517Z,6.43
2023-05-02T18:19:51.774Z,5.90
2023-05-02T18:22:21.487Z,6.03
2023-05-02T18:24:53.779Z,5.83
2023-05-02T18:27:21.020Z,5.50
2023-05-02T18:29:48.916Z,5.77
2023-05-02T18:32:16.066Z,5.50
2023-05-02T18:34:43.283Z,5.80
2023-05-02T18:37:11.113Z,5.50
2023-05-02T18:39:38.280Z,5.80
2023-05-02T18:42:06.032Z,5.23
2023-05-02T18:44:33.396Z,5.37
2023-05-02T18:47:01.123Z,5.50
2023-05-02T18:49:28.324Z,6.03
2023-05-02T18:51:55.524Z,5.70
2023-05-02T18:54:27.828Z,6.47
2023-05-02T18:56:55.005Z,5.70
2023-05-02T18:59:22.346Z,6.13
2023-05-02T19:01:49.545Z,6.13
2023-05-02T19:04:16.776Z,6.13
2023-05-02T19:06:43.993Z,7.80
2023-05-02T19:09:13.543Z,9.73
2023-05-02T19:11:42.672Z,6.60
2023-05-02T19:14:11.589Z,6.73
2023-05-02T19:16:40.417Z,8.70
2023-05-02T19:19:08.213Z,8.80
2023-05-02T19:21:36.176Z,8.03
2023-05-02T19:24:03.917Z,7.90
2023-05-02T19:26:31.152Z,9.83
2023-05-02T19:28:58.344Z,9.50
2023-05-02T19:31:25.748Z,10.67
2023-05-02T19:33:52.981Z,12.60
2023-05-02T19:36:24.094Z,10.53
2023-05-02T19:38:53.677Z,9.73
2023-05-02T19:41:22.188Z,10.50
2023-05-02T19:43:50.167Z,9.63
2023-05-02T19:46:18.086Z,9.53
2023-05-02T19:48:45.802Z,8.80
2023-05-02T19:51:13.087Z,9.33
2023-05-02T19:53:40.506Z,9.77
2023-05-02T19:56:08.260Z,9.50
2023-05-02T19:58:35.818Z,9.63
2023-05-02T20:01:04.845Z,9.60
2023-05-02T20:03:34.774Z,9.30
2023-05-02T20:06:02.349Z,7.43
2023-05-02T20:08:31.322Z,8.60
2023-05-02T20:10:58.641Z,10.63
2023-05-02T20:13:25.784Z,10.50
2023-05-02T20:15:53.843Z,10.83
2023-05-02T20:18:21.071Z,9.77
2023-05-02T20:20:48.348Z,9.50
2023-05-02T20:23:16.054Z,10.77
2023-05-02T20:25:43.815Z,9.73
2023-05-02T20:28:10.995Z,8.97
2023-05-02T20:30:41.883Z,8.37
2023-05-02T20:33:15.650Z,9.23
2023-05-02T20:35:44.310Z,11.47
2023-05-02T20:38:12.114Z,11.30
2023-05-02T20:40:40.521Z,11.10
2023-05-02T20:43:08.776Z,12.07
2023-05-02T20:45:36.001Z,11.47
2023-05-02T20:48:03.566Z,12.33
2023-05-02T20:50:30.976Z,11.00
2023-05-02T20:52:58.490Z,10.73
2023-05-02T20:55:25.806Z,8.30
2023-05-02T20:57:53.645Z,9.83
2023-05-02T21:00:23.777Z,9.50
2023-05-02T21:02:51.101Z,11.87
2023-05-02T21:05:18.403Z,12.80
2023-05-02T21:07:45.624Z,11.30
2023-05-02T21:10:12.910Z,10.07
2023-05-02T21:12:40.772Z,13.63
2023-05-02T21:15:08.434Z,11.60
2023-05-02T21:17:39.727Z,9.73
2023-05-02T21:20:07.734Z,11.27
2023-05-02T21:22:34.940Z,13.10
2023-05-02T21:25:02.115Z,14.67
2023-05-02T21:27:29.351Z,12.80
2023-05-02T21:29:56.545Z,11.70
2023-05-02T21:32:23.973Z,51.47
2023-05-02T21:34:51.388Z,77.33
2023-05-02T21:37:18.616Z,14.33
2023-05-02T21:39:45.861Z,13.77
2023-05-02T21:42:13.213Z,10.20
2023-05-02T21:44:40.458Z,9.67
2023-05-02T21:47:08.112Z,8.80
2023-05-02T21:49:35.512Z,11.17
2023-05-02T21:52:03.659Z,11.00
2023-05-02T21:54:31.857Z,11.63
2023-05-02T21:56:59.884Z,10.60
2023-05-02T21:59:27.261Z,11.73
2023-05-02T22:01:54.495Z,11.50
2023-05-02T22:04:22.073Z,10.77
2023-05-02T22:06:53.108Z,11.10
2023-05-02T22:09:20.933Z,11.10
2023-05-02T22:11:48.324Z,11.60
2023-05-02T22:14:15.576Z,10.83
2023-05-02T22:16:43.266Z,12.07
2023-05-02T22:19:17.606Z,11.97
2023-05-02T22:21:44.779Z,11.23
2023-05-02T22:24:12.211Z,13.27
2023-05-02T22:26:39.796Z,11.83
2023-05-02T22:29:07.357Z,12.17
2023-05-02T22:31:34.738Z,9.63
2023-05-02T22:34:02.364Z,15.57
2023-05-02T22:36:29.554Z,30.47
2023-05-02T22:38:58.214Z,14.33
2023-05-02T22:41:25.595Z,13.00
2023-05-02T22:43:52.799Z,12.03
2023-05-02T22:46:20.348Z,11.47
2023-05-02T22:48:49.295Z,10.03
2023-05-02T22:51:16.680Z,11.40
2023-05-02T22:53:43.908Z,11.47
2023-05-02T22:56:11.310Z,10.43
2023-05-02T22:58:38.846Z,10.57
2023-05-02T23:01:06.719Z,13.07
2023-05-02T23:03:35.127Z,9.40
2023-05-02T23:06:02.440Z,10.50
2023-05-02T23:08:29.638Z,11.57
2023-05-02T23:10:56.841Z,11.03
2023-05-02T23:13:24.153Z,11.13
2023-05-02T23:15:55.175Z,10.53
2023-05-02T23:18:23.157Z,10.00
2023-05-02T23:20:50.564Z,9.40
2023-05-02T23:23:17.980Z,10.57
2023-05-02T23:25:45.371Z,10.90
2023-05-02T23:28:12.912Z,10.37
2023-05-02T23:30:40.494Z,10.27
2023-05-02T23:33:07.856Z,7.23
2023-05-02T23:35:35.863Z,8.37
2023-05-02T23:38:06.945Z,8.70
2023-05-02T23:40:34.884Z,10.37
2023-05-02T23:43:02.149Z,9.17
2023-05-02T23:45:29.351Z,9.17
2023-05-02T23:47:56.782Z,8.50
2023-05-02T23:50:23.980Z,7.87
2023-05-02T23:52:51.154Z,8.70
2023-05-02T23:55:18.713Z,7.87
2023-05-02T23:57:46.240Z,9.43
